sensor_id;sensor_type;location;lat;lon;timestamp;temperature;humidity
15231;DHT22;32569;51.762;8.564;2024-03-17T00:02:21;7.30;99.90
15231;DHT22;32569;51.762;8.564;2024-03-17T00:04:48;7.30;99.90
15231;DHT22;32569;51.762;8.564;2024-03-17T00:07:15;7.30;99.90
15231;DHT22;32569;51.762;8.564;2024-03-17T00:09:42;7.30;99.90
15231;DHT22;32569;51.762;8.564;2024-03-17T00:12:08;7.30;99.90
15231;DHT22;32569;51.762;8.564;2024-03-17T00:14:38;7.20;99.90
15231;DHT22;32569;51.762;8.564;2024-03-17T00:17:07;7.20;99.90
15231;DHT22;32569;51.762;8.564;2024-03-17T00:19:36;7.10;99.90
15231;DHT22;32569;51.762;8.564;2024-03-17T00:22:02;7.10;99.90
15231;DHT22;32569;51.762;8.564;2024-03-17T00:24:30;7.00;99.90
15231;DHT22;32569;51.762;8.564;2024-03-17T00:27:00;7.10;99.90
15231;DHT22;32569;51.762;8.564;2024-03-17T00:29:27;7.00;99.90
15231;DHT22;32569;51.762;8.564;2024-03-17T00:31:53;7.00;99.90
15231;DHT22;32569;51.762;8.564;2024-03-17T00:34:20;6.90;99.90
15231;DHT22;32569;51.762;8.564;2024-03-17T00:36:46;6.80;99.90
15231;DHT22;32569;51.762;8.564;2024-03-17T00:39:12;6.80;99.90
15231;DHT22;32569;51.762;8.564;2024-03-17T00:41:41;6.80;99.90
15231;DHT22;32569;51.762;8.564;2024-03-17T00:44:07;6.70;99.90
15231;DHT22;32569;51.762;8.564;2024-03-17T00:46:33;6.70;99.90
15231;DHT22;32569;51.762;8.564;2024-03-17T00:48:59;6.70;99.90
15231;DHT22;32569;51.762;8.564;2024-03-17T00:51:28;6.70;99.90
15231;DHT22;32569;51.762;8.564;2024-03-17T00:53:57;6.70;99.90
15231;DHT22;32569;51.762;8.564;2024-03-17T00:56:23;6.60;99.90
15231;DHT22;32569;51.762;8.564;2024-03-17T00:58:52;6.60;99.90
15231;DHT22;32569;51.762;8.564;2024-03-17T01:01:18;6.60;99.90
15231;DHT22;32569;51.762;8.564;2024-03-17T01:03:44;6.50;99.90
15231;DHT22;32569;51.762;8.564;2024-03-17T01:06:11;6.50;99.90
15231;DHT22;32569;51.762;8.564;2024-03-17T01:08:37;6.40;99.90
15231;DHT22;32569;51.762;8.564;2024-03-17T01:11:04;6.40;99.90
15231;DHT22;32569;51.762;8.564;2024-03-17T01:13:36;6.30;99.90
15231;DHT22;32569;51.762;8.564;2024-03-17T01:16:08;6.30;99.90
15231;DHT22;32569;51.762;8.564;2024-03-17T01:18:36;6.30;99.90
15231;DHT22;32569;51.762;8.564;2024-03-17T01:21:05;6.20;99.90
15231;DHT22;32569;51.762;8.564;2024-03-17T01:23:31;6.20;99.90
15231;DHT22;32569;51.762;8.564;2024-03-17T01:26:01;6.20;99.90
15231;DHT22;32569;51.762;8.564;2024-03-17T01:28:26;6.20;99.90
15231;DHT22;32569;51.762;8.564;2024-03-17T01:30:53;6.20;99.90
15231;DHT22;32569;51.762;8.564;2024-03-17T01:33:26;6.20;99.90
15231;DHT22;32569;51.762;8.564;2024-03-17T01:35:53;6.10;99.90
15231;DHT22;32569;51.762;8.564;2024-03-17T01:38:19;6.00;99.90
15231;DHT22;32569;51.762;8.564;2024-03-17T01:40:45;6.10;99.90
15231;DHT22;32569;51.762;8.564;2024-03-17T01:43:13;6.00;99.90
15231;DHT22;32569;51.762;8.564;2024-03-17T01:45:39;5.90;99.90
15231;DHT22;32569;51.762;8.564;2024-03-17T01:48:15;5.90;99.90
15231;DHT22;32569;51.762;8.564;2024-03-17T01:50:44;5.80;99.90
15231;DHT22;32569;51.762;8.564;2024-03-17T01:53:12;5.80;99.90
15231;DHT22;32569;51.762;8.564;2024-03-17T01:55:40;5.80;99.90
15231;DHT22;32569;51.762;8.564;2024-03-17T01:58:08;5.70;99.90
15231;DHT22;32569;51.762;8.564;2024-03-17T02:00:36;5.70;99.90
15231;DHT22;32569;51.762;8.564;2024-03-17T02:03:06;5.80;99.90
15231;DHT22;32569;51.762;8.564;2024-03-17T02:05:34;5.80;99.90
15231;DHT22;32569;51.762;8.564;2024-03-17T02:08:04;5.80;99.90
15231;DHT22;32569;51.762;8.564;2024-03-17T02:10:30;5.70;99.90
15231;DHT22;32569;51.762;8.564;2024-03-17T02:12:56;5.60;99.90
15231;DHT22;32569;51.762;8.564;2024-03-17T02:15:22;5.60;99.90
15231;DHT22;32569;51.762;8.564;2024-03-17T02:17:49;5.50;99.90
15231;DHT22;32569;51.762;8.564;2024-03-17T02:20:15;5.50;99.90
15231;DHT22;32569;51.762;8.564;2024-03-17T02:22:44;5.50;99.90
15231;DHT22;32569;51.762;8.564;2024-03-17T02:25:10;5.40;99.90
15231;DHT22;32569;51.762;8.564;2024-03-17T02:27:37;5.40;99.90
15231;DHT22;32569;51.762;8.564;2024-03-17T02:30:03;5.40;99.90
15231;DHT22;32569;51.762;8.564;2024-03-17T02:32:33;5.40;99.90
15231;DHT22;32569;51.762;8.564;2024-03-17T02:34:59;5.40;99.90
15231;DHT22;32569;51.762;8.564;2024-03-17T02:37:25;5.40;99.90
15231;DHT22;32569;51.762;8.564;2024-03-17T02:39:53;5.40;99.90
15231;DHT22;32569;51.762;8.564;2024-03-17T02:42:20;5.20;99.90
15231;DHT22;32569;51.762;8.564;2024-03-17T02:44:47;5.20;99.90
15231;DHT22;32569;51.762;8.564;2024-03-17T02:47:13;5.20;99.90
15231;DHT22;32569;51.762;8.564;2024-03-17T02:49:41;5.30;99.90
15231;DHT22;32569;51.762;8.564;2024-03-17T02:52:10;5.20;99.90
15231;DHT22;32569;51.762;8.564;2024-03-17T02:54:37;5.20;99.90
15231;DHT22;32569;51.762;8.564;2024-03-17T02:57:06;5.30;99.90
15231;DHT22;32569;51.762;8.564;2024-03-17T02:59:33;5.30;99.90
15231;DHT22;32569;51.762;8.564;2024-03-17T03:02:08;5.10;99.90
15231;DHT22;32569;51.762;8.564;2024-03-17T03:04:35;5.10;99.90
15231;DHT22;32569;51.762;8.564;2024-03-17T03:07:04;5.20;99.90
15231;DHT22;32569;51.762;8.564;2024-03-17T03:09:31;5.10;99.90
15231;DHT22;32569;51.762;8.564;2024-03-17T03:11:58;5.00;99.90
15231;DHT22;32569;51.762;8.564;2024-03-17T03:14:27;5.00;99.90
15231;DHT22;32569;51.762;8.564;2024-03-17T03:16:54;5.00;99.90
15231;DHT22;32569;51.762;8.564;2024-03-17T03:19:20;5.10;99.90
15231;DHT22;32569;51.762;8.564;2024-03-17T03:21:47;5.00;99.90
15231;DHT22;32569;51.762;8.564;2024-03-17T03:24:14;5.00;99.90
15231;DHT22;32569;51.762;8.564;2024-03-17T03:26:41;5.00;99.90
15231;DHT22;32569;51.762;8.564;2024-03-17T03:29:11;5.20;99.90
15231;DHT22;32569;51.762;8.564;2024-03-17T03:31:41;5.10;99.90
15231;DHT22;32569;51.762;8.564;2024-03-17T03:34:07;5.10;99.90
15231;DHT22;32569;51.762;8.564;2024-03-17T03:36:35;5.10;99.90
15231;DHT22;32569;51.762;8.564;2024-03-17T03:39:02;5.10;99.90
15231;DHT22;32569;51.762;8.564;2024-03-17T03:41:31;5.00;99.90
15231;DHT22;32569;51.762;8.564;2024-03-17T03:43:58;4.90;99.90
15231;DHT22;32569;51.762;8.564;2024-03-17T03:46:25;5.00;99.90
15231;DHT22;32569;51.762;8.564;2024-03-17T03:48:53;5.00;99.90
15231;DHT22;32569;51.762;8.564;2024-03-17T03:51:20;4.90;99.90
15231;DHT22;32569;51.762;8.564;2024-03-17T03:53:46;4.90;99.90
15231;DHT22;32569;51.762;8.564;2024-03-17T03:56:13;4.80;99.90
15231;DHT22;32569;51.762;8.564;2024-03-17T03:58:40;4.70;99.90
15231;DHT22;32569;51.762;8.564;2024-03-17T04:01:09;4.80;99.90
15231;DHT22;32569;51.762;8.564;2024-03-17T04:03:37;4.80;99.90
15231;DHT22;32569;51.762;8.564;2024-03-17T04:06:09;4.80;99.90
15231;DHT22;32569;51.762;8.564;2024-03-17T04:08:37;4.80;99.90
15231;DHT22;32569;51.762;8.564;2024-03-17T04:11:05;4.90;99.90
15231;DHT22;32569;51.762;8.564;2024-03-17T04:13:33;4.90;99.90
15231;DHT22;32569;51.762;8.564;2024-03-17T04:16:03;4.90;99.90
15231;DHT22;32569;51.762;8.564;2024-03-17T04:18:31;4.70;99.90
15231;DHT22;32569;51.762;8.564;2024-03-17T04:21:04;4.70;99.90
15231;DHT22;32569;51.762;8.564;2024-03-17T04:23:33;4.70;99.90
15231;DHT22;32569;51.762;8.564;2024-03-17T04:26:00;4.70;99.90
15231;DHT22;32569;51.762;8.564;2024-03-17T04:28:28;4.70;99.90
15231;DHT22;32569;51.762;8.564;2024-03-17T04:31:07;4.60;99.90
15231;DHT22;32569;51.762;8.564;2024-03-17T04:33:37;4.60;99.90
15231;DHT22;32569;51.762;8.564;2024-03-17T04:36:04;4.60;99.90
15231;DHT22;32569;51.762;8.564;2024-03-17T04:38:33;4.60;99.90
15231;DHT22;32569;51.762;8.564;2024-03-17T04:40:59;4.60;99.90
15231;DHT22;32569;51.762;8.564;2024-03-17T04:43:31;4.70;99.90
15231;DHT22;32569;51.762;8.564;2024-03-17T04:46:02;4.70;99.90
15231;DHT22;32569;51.762;8.564;2024-03-17T04:48:31;4.70;99.90
15231;DHT22;32569;51.762;8.564;2024-03-17T04:50:58;4.60;99.90
15231;DHT22;32569;51.762;8.564;2024-03-17T04:53:25;4.60;99.90
15231;DHT22;32569;51.762;8.564;2024-03-17T04:56:00;4.70;99.90
15231;DHT22;32569;51.762;8.564;2024-03-17T04:58:27;4.60;99.90
15231;DHT22;32569;51.762;8.564;2024-03-17T05:00:54;4.50;99.90
15231;DHT22;32569;51.762;8.564;2024-03-17T05:03:20;4.60;99.90
15231;DHT22;32569;51.762;8.564;2024-03-17T05:05:47;4.50;99.90
15231;DHT22;32569;51.762;8.564;2024-03-17T05:08:14;4.50;99.90
15231;DHT22;32569;51.762;8.564;2024-03-17T05:10:41;4.60;99.90
15231;DHT22;32569;51.762;8.564;2024-03-17T05:13:09;4.50;99.90
15231;DHT22;32569;51.762;8.564;2024-03-17T05:15:37;4.50;99.90
15231;DHT22;32569;51.762;8.564;2024-03-17T05:18:04;4.50;99.90
15231;DHT22;32569;51.762;8.564;2024-03-17T05:20:31;4.50;99.90
15231;DHT22;32569;51.762;8.564;2024-03-17T05:23:00;4.50;99.90
15231;DHT22;32569;51.762;8.564;2024-03-17T05:25:27;4.50;99.90
15231;DHT22;32569;51.762;8.564;2024-03-17T05:27:55;4.40;99.90
15231;DHT22;32569;51.762;8.564;2024-03-17T05:30:23;4.40;99.90
15231;DHT22;32569;51.762;8.564;2024-03-17T05:32:55;4.40;99.90
15231;DHT22;32569;51.762;8.564;2024-03-17T05:35:21;4.40;99.90
15231;DHT22;32569;51.762;8.564;2024-03-17T05:37:50;4.50;99.90
15231;DHT22;32569;51.762;8.564;2024-03-17T05:40:20;4.60;99.90
15231;DHT22;32569;51.762;8.564;2024-03-17T05:42:47;4.50;99.90
15231;DHT22;32569;51.762;8.564;2024-03-17T05:45:13;4.40;99.90
15231;DHT22;32569;51.762;8.564;2024-03-17T05:47:41;4.40;99.90
15231;DHT22;32569;51.762;8.564;2024-03-17T05:50:09;4.40;99.90
15231;DHT22;32569;51.762;8.564;2024-03-17T05:52:38;4.50;99.90
15231;DHT22;32569;51.762;8.564;2024-03-17T05:55:05;4.50;99.90
15231;DHT22;32569;51.762;8.564;2024-03-17T05:57:32;4.50;99.90
15231;DHT22;32569;51.762;8.564;2024-03-17T05:59:58;4.40;99.90
15231;DHT22;32569;51.762;8.564;2024-03-17T06:02:25;4.40;99.90
15231;DHT22;32569;51.762;8.564;2024-03-17T06:04:53;4.40;99.90
15231;DHT22;32569;51.762;8.564;2024-03-17T06:07:23;4.40;99.90
15231;DHT22;32569;51.762;8.564;2024-03-17T06:09:49;4.30;99.90
15231;DHT22;32569;51.762;8.564;2024-03-17T06:12:16;4.40;99.90
15231;DHT22;32569;51.762;8.564;2024-03-17T06:14:43;4.30;99.90
15231;DHT22;32569;51.762;8.564;2024-03-17T06:17:09;4.40;99.90
15231;DHT22;32569;51.762;8.564;2024-03-17T06:19:38;4.40;99.90
15231;DHT22;32569;51.762;8.564;2024-03-17T06:22:06;4.40;99.90
15231;DHT22;32569;51.762;8.564;2024-03-17T06:24:36;4.40;99.90
15231;DHT22;32569;51.762;8.564;2024-03-17T06:27:03;4.50;99.90
15231;DHT22;32569;51.762;8.564;2024-03-17T06:29:33;4.50;99.90
15231;DHT22;32569;51.762;8.564;2024-03-17T06:32:00;4.50;99.90
15231;DHT22;32569;51.762;8.564;2024-03-17T06:34:27;4.50;99.90
15231;DHT22;32569;51.762;8.564;2024-03-17T06:36:54;4.50;99.90
15231;DHT22;32569;51.762;8.564;2024-03-17T06:39:22;4.50;99.90
15231;DHT22;32569;51.762;8.564;2024-03-17T06:41:49;4.70;99.90
15231;DHT22;32569;51.762;8.564;2024-03-17T06:44:15;4.70;99.90
15231;DHT22;32569;51.762;8.564;2024-03-17T06:46:42;4.70;99.90
15231;DHT22;32569;51.762;8.564;2024-03-17T06:49:09;4.80;99.90
15231;DHT22;32569;51.762;8.564;2024-03-17T06:51:36;4.80;99.90
15231;DHT22;32569;51.762;8.564;2024-03-17T06:54:02;4.80;99.90
15231;DHT22;32569;51.762;8.564;2024-03-17T06:56:30;4.90;99.90
15231;DHT22;32569;51.762;8.564;2024-03-17T06:58:58;5.00;99.90
15231;DHT22;32569;51.762;8.564;2024-03-17T07:01:25;5.00;99.90
15231;DHT22;32569;51.762;8.564;2024-03-17T07:03:51;5.10;99.90
15231;DHT22;32569;51.762;8.564;2024-03-17T07:06:18;5.10;99.90
15231;DHT22;32569;51.762;8.564;2024-03-17T07:08:44;5.20;99.90
15231;DHT22;32569;51.762;8.564;2024-03-17T07:11:11;5.40;99.90
15231;DHT22;32569;51.762;8.564;2024-03-17T07:13:39;5.40;99.90
15231;DHT22;32569;51.762;8.564;2024-03-17T07:16:07;5.40;99.90
15231;DHT22;32569;51.762;8.564;2024-03-17T07:18:35;5.40;99.90
15231;DHT22;32569;51.762;8.564;2024-03-17T07:21:03;5.50;99.90
15231;DHT22;32569;51.762;8.564;2024-03-17T07:23:31;5.60;99.90
15231;DHT22;32569;51.762;8.564;2024-03-17T07:25:59;5.60;99.90
15231;DHT22;32569;51.762;8.564;2024-03-17T07:28:26;5.70;99.90
15231;DHT22;32569;51.762;8.564;2024-03-17T07:30:56;5.70;99.90
15231;DHT22;32569;51.762;8.564;2024-03-17T07:33:23;5.90;99.90
15231;DHT22;32569;51.762;8.564;2024-03-17T07:35:52;6.00;99.90
15231;DHT22;32569;51.762;8.564;2024-03-17T07:38:19;6.10;99.90
15231;DHT22;32569;51.762;8.564;2024-03-17T07:40:57;6.20;99.90
15231;DHT22;32569;51.762;8.564;2024-03-17T07:43:24;6.20;99.90
15231;DHT22;32569;51.762;8.564;2024-03-17T07:45:59;6.20;99.90
15231;DHT22;32569;51.762;8.564;2024-03-17T07:48:26;6.40;99.90
15231;DHT22;32569;51.762;8.564;2024-03-17T07:50:54;6.50;99.90
15231;DHT22;32569;51.762;8.564;2024-03-17T07:53:21;6.60;99.90
15231;DHT22;32569;51.762;8.564;2024-03-17T07:55:57;6.60;99.90
15231;DHT22;32569;51.762;8.564;2024-03-17T07:58:24;6.70;99.90
15231;DHT22;32569;51.762;8.564;2024-03-17T08:00:51;6.70;99.90
15231;DHT22;32569;51.762;8.564;2024-03-17T08:03:20;6.80;99.90
15231;DHT22;32569;51.762;8.564;2024-03-17T08:05:48;7.00;99.90
15231;DHT22;32569;51.762;8.564;2024-03-17T08:08:15;7.10;99.90
15231;DHT22;32569;51.762;8.564;2024-03-17T08:10:42;7.10;99.90
15231;DHT22;32569;51.762;8.564;2024-03-17T08:13:09;7.20;99.90
15231;DHT22;32569;51.762;8.564;2024-03-17T08:15:35;7.30;99.90
15231;DHT22;32569;51.762;8.564;2024-03-17T08:18:02;7.30;99.90
15231;DHT22;32569;51.762;8.564;2024-03-17T08:20:30;7.40;99.90
15231;DHT22;32569;51.762;8.564;2024-03-17T08:22:57;7.40;99.90
15231;DHT22;32569;51.762;8.564;2024-03-17T08:25:23;7.40;99.90
15231;DHT22;32569;51.762;8.564;2024-03-17T08:27:50;7.60;99.90
15231;DHT22;32569;51.762;8.564;2024-03-17T08:30:17;7.80;99.90
15231;DHT22;32569;51.762;8.564;2024-03-17T08:32:44;7.90;99.90
15231;DHT22;32569;51.762;8.564;2024-03-17T08:35:10;7.90;99.90
15231;DHT22;32569;51.762;8.564;2024-03-17T08:37:38;8.00;99.90
15231;DHT22;32569;51.762;8.564;2024-03-17T08:40:06;8.10;99.90
15231;DHT22;32569;51.762;8.564;2024-03-17T08:42:33;8.20;99.90
15231;DHT22;32569;51.762;8.564;2024-03-17T08:45:00;8.20;99.90
15231;DHT22;32569;51.762;8.564;2024-03-17T08:47:27;8.30;99.90
15231;DHT22;32569;51.762;8.564;2024-03-17T08:49:54;8.30;99.90
15231;DHT22;32569;51.762;8.564;2024-03-17T08:52:21;8.30;99.90
15231;DHT22;32569;51.762;8.564;2024-03-17T08:54:49;8.30;99.90
15231;DHT22;32569;51.762;8.564;2024-03-17T08:57:17;8.40;99.90
15231;DHT22;32569;51.762;8.564;2024-03-17T08:59:47;8.50;99.90
15231;DHT22;32569;51.762;8.564;2024-03-17T09:02:14;8.50;99.90
15231;DHT22;32569;51.762;8.564;2024-03-17T09:04:41;8.60;99.90
15231;DHT22;32569;51.762;8.564;2024-03-17T09:07:08;8.70;99.90
15231;DHT22;32569;51.762;8.564;2024-03-17T09:09:34;8.80;99.90
15231;DHT22;32569;51.762;8.564;2024-03-17T09:12:02;8.90;99.90
15231;DHT22;32569;51.762;8.564;2024-03-17T09:14:30;9.00;99.20
15231;DHT22;32569;51.762;8.564;2024-03-17T09:16:57;9.10;99.60
15231;DHT22;32569;51.762;8.564;2024-03-17T09:19:25;9.10;99.90
15231;DHT22;32569;51.762;8.564;2024-03-17T09:21:57;9.20;99.70
15231;DHT22;32569;51.762;8.564;2024-03-17T09:24:24;9.20;99.80
15231;DHT22;32569;51.762;8.564;2024-03-17T09:26:52;9.30;99.80
15231;DHT22;32569;51.762;8.564;2024-03-17T09:29:20;9.30;99.80
15231;DHT22;32569;51.762;8.564;2024-03-17T09:31:46;9.40;99.90
15231;DHT22;32569;51.762;8.564;2024-03-17T09:34:13;9.50;99.30
15231;DHT22;32569;51.762;8.564;2024-03-17T09:36:40;9.60;99.00
15231;DHT22;32569;51.762;8.564;2024-03-17T09:39:06;9.70;99.30
15231;DHT22;32569;51.762;8.564;2024-03-17T09:41:33;9.70;99.20
15231;DHT22;32569;51.762;8.564;2024-03-17T09:44:01;9.80;98.90
15231;DHT22;32569;51.762;8.564;2024-03-17T09:46:29;9.90;99.00
15231;DHT22;32569;51.762;8.564;2024-03-17T09:48:57;10.00;98.80
15231;DHT22;32569;51.762;8.564;2024-03-17T09:51:25;10.10;98.30
15231;DHT22;32569;51.762;8.564;2024-03-17T09:53:52;10.10;98.40
15231;DHT22;32569;51.762;8.564;2024-03-17T09:56:20;10.10;98.90
15231;DHT22;32569;51.762;8.564;2024-03-17T09:58:49;10.20;98.90
15231;DHT22;32569;51.762;8.564;2024-03-17T10:01:16;10.20;98.30
15231;DHT22;32569;51.762;8.564;2024-03-17T10:03:45;10.20;98.10
15231;DHT22;32569;51.762;8.564;2024-03-17T10:06:20;10.20;97.90
15231;DHT22;32569;51.762;8.564;2024-03-17T10:08:49;10.20;97.90
15231;DHT22;32569;51.762;8.564;2024-03-17T10:11:17;10.10;98.20
15231;DHT22;32569;51.762;8.564;2024-03-17T10:13:45;10.20;97.90
15231;DHT22;32569;51.762;8.564;2024-03-17T10:16:22;10.10;98.00
15231;DHT22;32569;51.762;8.564;2024-03-17T10:18:51;10.20;98.30
15231;DHT22;32569;51.762;8.564;2024-03-17T10:21:31;10.20;97.90
15231;DHT22;32569;51.762;8.564;2024-03-17T10:24:05;10.20;98.20
15231;DHT22;32569;51.762;8.564;2024-03-17T10:26:46;10.20;98.00
15231;DHT22;32569;51.762;8.564;2024-03-17T10:29:24;10.30;97.80
15231;DHT22;32569;51.762;8.564;2024-03-17T10:31:52;10.30;98.40
15231;DHT22;32569;51.762;8.564;2024-03-17T10:34:20;10.30;98.00
15231;DHT22;32569;51.762;8.564;2024-03-17T10:36:50;10.40;98.00
15231;DHT22;32569;51.762;8.564;2024-03-17T10:39:23;10.40;98.10
15231;DHT22;32569;51.762;8.564;2024-03-17T10:41:56;10.50;97.90
15231;DHT22;32569;51.762;8.564;2024-03-17T10:44:24;10.50;97.90
15231;DHT22;32569;51.762;8.564;2024-03-17T10:46:54;10.50;97.50
15231;DHT22;32569;51.762;8.564;2024-03-17T10:49:26;10.50;97.70
15231;DHT22;32569;51.762;8.564;2024-03-17T10:51:57;10.40;97.70
15231;DHT22;32569;51.762;8.564;2024-03-17T10:54:25;10.40;97.20
15231;DHT22;32569;51.762;8.564;2024-03-17T10:56:57;10.40;97.80
15231;DHT22;32569;51.762;8.564;2024-03-17T10:59:32;10.30;97.60
15231;DHT22;32569;51.762;8.564;2024-03-17T11:02:01;10.30;98.10
15231;DHT22;32569;51.762;8.564;2024-03-17T11:04:30;10.20;97.40
15231;DHT22;32569;51.762;8.564;2024-03-17T11:06:57;10.20;97.70
15231;DHT22;32569;51.762;8.564;2024-03-17T11:09:27;10.20;97.70
15231;DHT22;32569;51.762;8.564;2024-03-17T11:11:54;10.20;97.60
15231;DHT22;32569;51.762;8.564;2024-03-17T11:14:20;10.30;97.50
15231;DHT22;32569;51.762;8.564;2024-03-17T11:16:48;10.30;97.80
15231;DHT22;32569;51.762;8.564;2024-03-17T11:19:16;10.40;97.70
15231;DHT22;32569;51.762;8.564;2024-03-17T11:21:44;10.40;97.30
15231;DHT22;32569;51.762;8.564;2024-03-17T11:24:19;10.50;96.80
15231;DHT22;32569;51.762;8.564;2024-03-17T11:26:46;10.60;97.10
15231;DHT22;32569;51.762;8.564;2024-03-17T11:29:27;10.60;97.50
15231;DHT22;32569;51.762;8.564;2024-03-17T11:31:54;10.70;96.20
15231;DHT22;32569;51.762;8.564;2024-03-17T11:34:31;10.70;96.60
15231;DHT22;32569;51.762;8.564;2024-03-17T11:37:00;10.70;96.90
15231;DHT22;32569;51.762;8.564;2024-03-17T11:39:48;10.70;96.30
15231;DHT22;32569;51.762;8.564;2024-03-17T11:42:15;10.80;96.50
15231;DHT22;32569;51.762;8.564;2024-03-17T11:44:55;10.90;96.30
15231;DHT22;32569;51.762;8.564;2024-03-17T11:47:21;11.00;96.80
15231;DHT22;32569;51.762;8.564;2024-03-17T11:49:49;11.10;96.60
15231;DHT22;32569;51.762;8.564;2024-03-17T11:52:19;11.20;96.20
15231;DHT22;32569;51.762;8.564;2024-03-17T11:54:46;11.20;96.60
15231;DHT22;32569;51.762;8.564;2024-03-17T11:57:22;11.20;96.70
15231;DHT22;32569;51.762;8.564;2024-03-17T11:59:48;11.20;96.50
15231;DHT22;32569;51.762;8.564;2024-03-17T12:02:17;11.20;96.10
15231;DHT22;32569;51.762;8.564;2024-03-17T12:04:44;11.20;95.90
15231;DHT22;32569;51.762;8.564;2024-03-17T12:07:12;11.20;95.90
15231;DHT22;32569;51.762;8.564;2024-03-17T12:09:44;11.10;96.50
15231;DHT22;32569;51.762;8.564;2024-03-17T12:12:14;11.10;96.20
15231;DHT22;32569;51.762;8.564;2024-03-17T12:14:45;11.20;95.90
15231;DHT22;32569;51.762;8.564;2024-03-17T12:17:13;11.20;95.90
15231;DHT22;32569;51.762;8.564;2024-03-17T12:19:40;11.20;95.90
15231;DHT22;32569;51.762;8.564;2024-03-17T12:22:08;11.20;96.20
15231;DHT22;32569;51.762;8.564;2024-03-17T12:24:37;11.20;96.40
15231;DHT22;32569;51.762;8.564;2024-03-17T12:27:06;11.30;97.10
15231;DHT22;32569;51.762;8.564;2024-03-17T12:29:34;11.40;96.10
15231;DHT22;32569;51.762;8.564;2024-03-17T12:32:02;11.40;96.10
15231;DHT22;32569;51.762;8.564;2024-03-17T12:34:31;11.40;96.20
15231;DHT22;32569;51.762;8.564;2024-03-17T12:36:58;11.40;96.30
15231;DHT22;32569;51.762;8.564;2024-03-17T12:39:26;11.40;96.50
15231;DHT22;32569;51.762;8.564;2024-03-17T12:42:03;11.50;95.50
15231;DHT22;32569;51.762;8.564;2024-03-17T12:44:32;11.60;96.10
15231;DHT22;32569;51.762;8.564;2024-03-17T12:46:58;11.60;96.40
15231;DHT22;32569;51.762;8.564;2024-03-17T12:49:27;11.70;96.30
15231;DHT22;32569;51.762;8.564;2024-03-17T12:51:53;11.80;95.90
15231;DHT22;32569;51.762;8.564;2024-03-17T12:54:22;11.90;95.80
15231;DHT22;32569;51.762;8.564;2024-03-17T12:56:50;11.90;95.60
15231;DHT22;32569;51.762;8.564;2024-03-17T12:59:40;11.90;95.60
15231;DHT22;32569;51.762;8.564;2024-03-17T13:02:41;12.00;95.70
15231;DHT22;32569;51.762;8.564;2024-03-17T13:05:13;12.00;95.30
15231;DHT22;32569;51.762;8.564;2024-03-17T13:07:39;12.00;95.30
15231;DHT22;32569;51.762;8.564;2024-03-17T13:10:07;12.10;95.80
15231;DHT22;32569;51.762;8.564;2024-03-17T13:12:37;12.10;95.90
15231;DHT22;32569;51.762;8.564;2024-03-17T13:15:05;12.20;95.10
15231;DHT22;32569;51.762;8.564;2024-03-17T13:17:35;12.20;95.40
15231;DHT22;32569;51.762;8.564;2024-03-17T13:20:02;12.20;94.90
15231;DHT22;32569;51.762;8.564;2024-03-17T13:22:29;12.30;94.80
15231;DHT22;32569;51.762;8.564;2024-03-17T13:24:57;12.30;94.80
15231;DHT22;32569;51.762;8.564;2024-03-17T13:27:23;12.30;94.90
15231;DHT22;32569;51.762;8.564;2024-03-17T13:29:49;12.30;95.50
15231;DHT22;32569;51.762;8.564;2024-03-17T13:32:17;12.30;94.90
15231;DHT22;32569;51.762;8.564;2024-03-17T13:34:44;12.20;94.70
15231;DHT22;32569;51.762;8.564;2024-03-17T13:37:11;12.20;95.00
15231;DHT22;32569;51.762;8.564;2024-03-17T13:39:38;12.20;94.90
15231;DHT22;32569;51.762;8.564;2024-03-17T13:42:05;12.20;94.80
15231;DHT22;32569;51.762;8.564;2024-03-17T13:44:33;12.20;95.00
15231;DHT22;32569;51.762;8.564;2024-03-17T13:47:00;12.20;94.70
15231;DHT22;32569;51.762;8.564;2024-03-17T13:49:30;12.10;95.00
15231;DHT22;32569;51.762;8.564;2024-03-17T13:51:57;12.10;95.40
15231;DHT22;32569;51.762;8.564;2024-03-17T13:54:23;12.10;95.10
15231;DHT22;32569;51.762;8.564;2024-03-17T13:56:50;12.10;95.20
15231;DHT22;32569;51.762;8.564;2024-03-17T13:59:17;12.00;95.60
15231;DHT22;32569;51.762;8.564;2024-03-17T14:01:44;11.90;98.10
15231;DHT22;32569;51.762;8.564;2024-03-17T14:04:13;11.70;98.30
15231;DHT22;32569;51.762;8.564;2024-03-17T14:06:44;11.60;98.20
15231;DHT22;32569;51.762;8.564;2024-03-17T14:09:11;11.60;96.60
15231;DHT22;32569;51.762;8.564;2024-03-17T14:11:38;11.70;98.70
15231;DHT22;32569;51.762;8.564;2024-03-17T14:14:05;11.70;97.50
15231;DHT22;32569;51.762;8.564;2024-03-17T14:16:33;11.60;98.40
15231;DHT22;32569;51.762;8.564;2024-03-17T14:19:00;11.70;96.10
15231;DHT22;32569;51.762;8.564;2024-03-17T14:21:28;11.70;96.60
15231;DHT22;32569;51.762;8.564;2024-03-17T14:23:57;11.70;96.50
15231;DHT22;32569;51.762;8.564;2024-03-17T14:26:25;11.70;96.90
15231;DHT22;32569;51.762;8.564;2024-03-17T14:28:51;11.70;97.10
15231;DHT22;32569;51.762;8.564;2024-03-17T14:31:20;11.60;98.80
15231;DHT22;32569;51.762;8.564;2024-03-17T14:33:47;11.60;97.60
15231;DHT22;32569;51.762;8.564;2024-03-17T14:36:13;11.70;96.60
15231;DHT22;32569;51.762;8.564;2024-03-17T14:38:40;11.70;97.90
15231;DHT22;32569;51.762;8.564;2024-03-17T14:41:09;11.70;97.10
15231;DHT22;32569;51.762;8.564;2024-03-17T14:43:38;11.70;96.80
15231;DHT22;32569;51.762;8.564;2024-03-17T14:46:05;11.70;98.10
15231;DHT22;32569;51.762;8.564;2024-03-17T14:48:33;11.60;97.00
15231;DHT22;32569;51.762;8.564;2024-03-17T14:51:00;11.60;97.60
15231;DHT22;32569;51.762;8.564;2024-03-17T14:53:27;11.60;98.90
15231;DHT22;32569;51.762;8.564;2024-03-17T14:55:54;11.50;98.60
15231;DHT22;32569;51.762;8.564;2024-03-17T14:58:26;11.60;98.10
15231;DHT22;32569;51.762;8.564;2024-03-17T15:00:52;11.60;97.80
15231;DHT22;32569;51.762;8.564;2024-03-17T15:03:19;11.70;98.00
15231;DHT22;32569;51.762;8.564;2024-03-17T15:05:46;11.70;97.40
15231;DHT22;32569;51.762;8.564;2024-03-17T15:08:13;11.70;97.10
15231;DHT22;32569;51.762;8.564;2024-03-17T15:10:40;11.80;97.50
15231;DHT22;32569;51.762;8.564;2024-03-17T15:13:06;11.80;97.50
15231;DHT22;32569;51.762;8.564;2024-03-17T15:15:36;11.80;97.30
15231;DHT22;32569;51.762;8.564;2024-03-17T15:18:04;11.80;98.20
15231;DHT22;32569;51.762;8.564;2024-03-17T15:20:31;11.70;98.30
15231;DHT22;32569;51.762;8.564;2024-03-17T15:22:57;11.70;97.90
15231;DHT22;32569;51.762;8.564;2024-03-17T15:25:24;11.80;97.70
15231;DHT22;32569;51.762;8.564;2024-03-17T15:27:53;11.80;97.80
15231;DHT22;32569;51.762;8.564;2024-03-17T15:30:20;11.80;97.70
15231;DHT22;32569;51.762;8.564;2024-03-17T15:32:52;11.80;98.20
15231;DHT22;32569;51.762;8.564;2024-03-17T15:35:20;11.80;98.00
15231;DHT22;32569;51.762;8.564;2024-03-17T15:37:46;11.80;98.10
15231;DHT22;32569;51.762;8.564;2024-03-17T15:40:16;11.80;98.20
15231;DHT22;32569;51.762;8.564;2024-03-17T15:42:44;11.70;98.80
15231;DHT22;32569;51.762;8.564;2024-03-17T15:45:14;11.80;98.50
15231;DHT22;32569;51.762;8.564;2024-03-17T15:47:41;11.80;97.90